createdAt,value
2023-03-11T00:02:16.259Z,4.25
2023-03-11T00:04:51.010Z,3.70
2023-03-11T00:07:21.842Z,4.20
2023-03-11T00:09:52.601Z,3.55
2023-03-11T00:12:35.932Z,3.60
2023-03-11T00:15:07.759Z,3.28
2023-03-11T00:17:38.485Z,3.17
2023-03-11T00:20:19.876Z,3.10
2023-03-11T00:22:53.076Z,3.10
2023-03-11T00:25:29.088Z,3.05
2023-03-11T00:28:00.890Z,3.15
2023-03-11T00:30:32.056Z,3.80
2023-03-11T00:33:04.224Z,2.75
2023-03-11T00:35:38.515Z,2.90
2023-03-11T00:38:15.610Z,3.15
2023-03-11T00:40:48.667Z,3.22
2023-03-11T00:43:19.969Z,3.70
2023-03-11T00:45:50.779Z,3.40
2023-03-11T00:48:25.793Z,3.25
2023-03-11T00:50:59.133Z,3.35
2023-03-11T00:53:30.019Z,4.00
2023-03-11T00:56:01.398Z,3.58
2023-03-11T00:58:33.238Z,3.80
2023-03-11T01:01:04.272Z,3.55
2023-03-11T01:03:35.455Z,3.95
2023-03-11T01:06:12.471Z,4.05
2023-03-11T01:08:43.853Z,4.30
2023-03-11T01:11:14.874Z,4.15
2023-03-11T01:13:45.788Z,3.35
2023-03-11T01:16:16.682Z,3.78
2023-03-11T01:18:47.741Z,3.50
2023-03-11T01:21:21.132Z,3.50
2023-03-11T01:23:52.015Z,3.10
2023-03-11T01:26:22.786Z,3.00
2023-03-11T01:28:56.697Z,2.95
2023-03-11T01:31:27.688Z,2.80
2023-03-11T01:33:58.541Z,2.63
2023-03-11T01:36:31.919Z,2.20
2023-03-11T01:39:02.794Z,2.88
2023-03-11T01:41:33.696Z,3.00
2023-03-11T01:44:05.248Z,3.20
2023-03-11T01:46:39.686Z,2.72
2023-03-11T01:49:14.888Z,2.60
2023-03-11T01:51:52.562Z,2.38
2023-03-11T01:54:26.437Z,2.85
2023-03-11T01:56:58.976Z,2.35
2023-03-11T01:59:32.840Z,2.60
2023-03-11T02:02:09.595Z,2.45
2023-03-11T02:04:43.166Z,2.70
2023-03-11T02:07:17.880Z,2.17
2023-03-11T02:09:48.897Z,2.95
2023-03-11T02:12:19.966Z,3.30
2023-03-11T02:14:54.114Z,3.80
2023-03-11T02:17:25.267Z,4.20
2023-03-11T02:20:09.041Z,4.30
2023-03-11T02:22:46.166Z,4.15
2023-03-11T02:25:23.896Z,4.13
2023-03-11T02:27:59.218Z,4.13
2023-03-11T02:30:31.174Z,3.88
2023-03-11T02:33:03.264Z,3.30
2023-03-11T02:35:34.515Z,3.80
2023-03-11T02:38:05.615Z,3.10
2023-03-11T02:40:53.866Z,2.92
2023-03-11T02:43:34.051Z,2.92
2023-03-11T02:46:07.136Z,2.40
2023-03-11T02:48:39.339Z,2.85
2023-03-11T02:51:10.684Z,2.90
2023-03-11T02:53:45.989Z,3.10
2023-03-11T02:56:16.713Z,2.80
2023-03-11T02:58:50.094Z,2.70
2023-03-11T03:01:21.090Z,2.40
2023-03-11T03:03:52.002Z,2.70
2023-03-11T03:06:22.847Z,2.85
2023-03-11T03:08:53.930Z,2.78
2023-03-11T03:11:24.765Z,3.00
2023-03-11T03:14:00.612Z,2.97
2023-03-11T03:16:31.471Z,2.58
2023-03-11T03:19:02.242Z,3.08
2023-03-11T03:21:33.186Z,2.90
2023-03-11T03:24:07.099Z,2.83
2023-03-11T03:26:38.496Z,2.80
2023-03-11T03:29:11.982Z,2.90
2023-03-11T03:31:44.789Z,2.70
2023-03-11T03:34:15.645Z,2.70
2023-03-11T03:36:46.533Z,3.10
2023-03-11T03:39:18.752Z,3.13
2023-03-11T03:41:52.110Z,3.17
2023-03-11T03:44:27.920Z,3.05
2023-03-11T03:46:58.626Z,3.15
2023-03-11T03:49:32.707Z,3.00
2023-03-11T03:52:03.773Z,3.35
2023-03-11T03:54:34.703Z,3.40
2023-03-11T03:57:06.145Z,3.15
2023-03-11T03:59:39.873Z,3.88
2023-03-11T04:02:10.782Z,3.22
2023-03-11T04:04:50.321Z,4.05
2023-03-11T04:07:21.077Z,3.40
2023-03-11T04:09:52.004Z,3.55
2023-03-11T04:12:22.947Z,3.80
2023-03-11T04:14:56.326Z,4.10
2023-03-11T04:17:27.297Z,3.72
2023-03-11T04:19:58.431Z,3.38
2023-03-11T04:22:29.188Z,3.65
2023-03-11T04:25:00.163Z,3.25
2023-03-11T04:27:30.979Z,3.45
2023-03-11T04:30:04.358Z,3.10
2023-03-11T04:32:35.245Z,3.17
2023-03-11T04:35:06.519Z,3.45
2023-03-11T04:37:37.281Z,3.42
2023-03-11T04:40:11.062Z,2.88
2023-03-11T04:42:42.076Z,3.10
2023-03-11T04:45:18.485Z,3.08
2023-03-11T04:47:51.099Z,2.72
2023-03-11T04:50:22.602Z,3.00
2023-03-11T04:52:56.532Z,3.40
2023-03-11T04:55:27.628Z,2.80
2023-03-11T04:57:58.468Z,3.03
2023-03-11T05:00:32.178Z,3.30
2023-03-11T05:03:03.125Z,2.75
2023-03-11T05:05:35.009Z,2.80
2023-03-11T05:08:06.288Z,2.58
2023-03-11T05:10:38.309Z,2.40
2023-03-11T05:13:10.357Z,2.45
2023-03-11T05:15:44.437Z,3.15
2023-03-11T05:18:15.848Z,3.97
2023-03-11T05:20:46.687Z,2.90
2023-03-11T05:23:18.010Z,2.70
2023-03-11T05:25:48.863Z,2.83
2023-03-11T05:28:20.113Z,2.80
2023-03-11T05:30:53.451Z,2.78
2023-03-11T05:33:24.337Z,2.60
2023-03-11T05:35:55.187Z,3.50
2023-03-11T05:38:26.061Z,2.50
2023-03-11T05:40:56.747Z,2.58
2023-03-11T05:43:27.604Z,3.13
2023-03-11T05:46:03.770Z,2.72
2023-03-11T05:48:36.417Z,3.83
2023-03-11T05:51:10.162Z,2.58
2023-03-11T05:53:41.659Z,2.78
2023-03-11T05:56:12.570Z,2.72
2023-03-11T05:58:43.572Z,2.70
2023-03-11T06:01:19.878Z,2.35
2023-03-11T06:03:50.778Z,3.20
2023-03-11T06:06:21.719Z,2.85
2023-03-11T06:08:52.484Z,3.10
2023-03-11T06:11:25.520Z,2.55
2023-03-11T06:13:57.198Z,3.38
2023-03-11T06:16:32.192Z,3.33
2023-03-11T06:19:03.290Z,2.60
2023-03-11T06:21:34.473Z,2.95
2023-03-11T06:24:05.448Z,3.65
2023-03-11T06:26:36.452Z,8.70
2023-03-11T06:29:07.600Z,5.22
2023-03-11T06:31:41.603Z,4.35
2023-03-11T06:34:15.675Z,3.55
2023-03-11T06:36:49.401Z,4.10
2023-03-11T06:39:20.231Z,3.65
2023-03-11T06:41:51.182Z,2.90
2023-03-11T06:44:22.229Z,2.53
2023-03-11T06:46:55.592Z,2.50
2023-03-11T06:49:26.336Z,2.67
2023-03-11T06:51:57.181Z,2.70
2023-03-11T06:54:28.207Z,2.92
2023-03-11T06:56:59.019Z,2.92
2023-03-11T06:59:30.008Z,2.60
2023-03-11T07:02:03.953Z,2.72
2023-03-11T07:04:35.505Z,2.53
2023-03-11T07:07:06.253Z,2.30
2023-03-11T07:09:37.125Z,2.00
2023-03-11T07:12:16.944Z,2.60
2023-03-11T07:14:48.253Z,3.53
2023-03-11T07:17:21.685Z,7.97
2023-03-11T07:19:52.828Z,6.22
2023-03-11T07:22:23.604Z,7.47
2023-03-11T07:24:54.396Z,6.97
2023-03-11T07:27:25.306Z,6.45
2023-03-11T07:29:56.092Z,5.10
2023-03-11T07:32:29.712Z,4.20
2023-03-11T07:35:00.516Z,10.00
2023-03-11T07:37:31.510Z,5.32
2023-03-11T07:40:02.836Z,2.83
2023-03-11T07:42:34.854Z,5.70
2023-03-11T07:45:05.713Z,4.20
2023-03-11T07:47:42.018Z,2.90
2023-03-11T07:50:14.215Z,3.00
2023-03-11T07:52:45.166Z,3.83
2023-03-11T07:55:15.924Z,3.25
2023-03-11T07:57:46.847Z,2.90
2023-03-11T08:00:19.288Z,2.40
2023-03-11T08:02:52.748Z,3.60
2023-03-11T08:05:23.575Z,2.20
2023-03-11T08:07:54.488Z,2.75
2023-03-11T08:10:25.532Z,2.65
2023-03-11T08:12:56.250Z,2.40
2023-03-11T08:15:28.418Z,2.30
2023-03-11T08:18:01.899Z,2.60
2023-03-11T08:20:32.696Z,2.42
2023-03-11T08:23:03.431Z,2.38
2023-03-11T08:25:34.313Z,1.77
2023-03-11T08:28:05.107Z,2.13
2023-03-11T08:30:35.888Z,1.93
2023-03-11T08:33:09.271Z,2.10
2023-03-11T08:35:40.047Z,2.50
2023-03-11T08:38:10.920Z,2.70
2023-03-11T08:40:41.683Z,2.07
2023-03-11T08:43:15.769Z,2.80
2023-03-11T08:45:46.825Z,3.20
2023-03-11T08:48:20.318Z,3.50
2023-03-11T08:50:54.399Z,3.07
2023-03-11T08:53:25.780Z,1.60
2023-03-11T08:55:56.497Z,1.47
2023-03-11T08:58:27.269Z,1.47
2023-03-11T09:00:58.215Z,1.53
2023-03-11T09:03:35.327Z,1.50
2023-03-11T09:06:11.109Z,1.30
2023-03-11T09:08:42.108Z,1.60
2023-03-11T09:11:14.021Z,1.40
2023-03-11T09:13:45.458Z,1.60
2023-03-11T09:16:18.086Z,1.90
2023-03-11T09:18:51.918Z,1.47
2023-03-11T09:21:22.925Z,1.30
2023-03-11T09:23:53.635Z,1.30
2023-03-11T09:26:25.015Z,1.40
2023-03-11T09:28:58.643Z,0.93
2023-03-11T09:31:29.528Z,1.00
2023-03-11T09:34:03.097Z,1.03
2023-03-11T09:36:33.877Z,1.03
2023-03-11T09:39:04.738Z,1.47
2023-03-11T09:41:55.681Z,1.10
2023-03-11T09:44:46.835Z,1.00
2023-03-11T09:47:32.989Z,1.30
2023-03-11T09:50:20.618Z,1.10
2023-03-11T09:53:00.718Z,1.20
2023-03-11T09:55:40.195Z,1.10
2023-03-11T09:58:18.643Z,1.07
2023-03-11T10:00:52.088Z,1.10
2023-03-11T10:03:39.802Z,0.90
2023-03-11T10:06:22.868Z,0.90
2023-03-11T10:09:27.366Z,1.00
2023-03-11T10:12:24.728Z,0.90
2023-03-11T10:15:25.292Z,1.53
2023-03-11T10:18:11.912Z,1.30
2023-03-11T10:20:52.620Z,1.27
2023-03-11T10:23:32.342Z,1.40
2023-03-11T10:26:11.947Z,0.70
2023-03-11T10:28:50.531Z,1.40
2023-03-11T10:31:27.651Z,3.23
2023-03-11T10:34:03.895Z,1.40
2023-03-11T10:36:51.644Z,1.10
2023-03-11T10:39:26.095Z,1.30
2023-03-11T10:42:02.893Z,1.07
2023-03-11T10:44:37.025Z,0.87
2023-03-11T10:47:08.891Z,1.47
2023-03-11T10:49:40.020Z,1.50
2023-03-11T10:52:11.100Z,0.90
2023-03-11T10:54:50.355Z,0.90
2023-03-11T10:57:28.241Z,0.80
2023-03-11T11:00:09.647Z,1.13
2023-03-11T11:02:43.835Z,0.80
2023-03-11T11:05:32.675Z,0.90
2023-03-11T11:08:09.832Z,0.80
2023-03-11T11:10:53.855Z,0.97
2023-03-11T11:13:26.360Z,0.83
2023-03-11T11:16:00.400Z,2.03
2023-03-11T11:18:36.653Z,0.93
2023-03-11T11:21:10.340Z,1.00
2023-03-11T11:23:45.194Z,1.00
2023-03-11T11:26:29.128Z,1.00
2023-03-11T11:29:10.181Z,1.00
2023-03-11T11:31:42.514Z,0.90
2023-03-11T11:34:32.450Z,2.63
2023-03-11T11:37:09.847Z,0.83
2023-03-11T11:39:51.981Z,0.90
2023-03-11T11:42:27.162Z,1.10
2023-03-11T11:45:03.837Z,1.00
2023-03-11T11:47:39.373Z,0.80
2023-03-11T11:50:19.029Z,0.80
2023-03-11T11:52:54.262Z,1.27
2023-03-11T11:55:30.659Z,0.73
2023-03-11T11:58:05.525Z,0.80
2023-03-11T12:00:44.926Z,1.20
2023-03-11T12:03:31.477Z,1.50
2023-03-11T12:06:10.792Z,1.07
2023-03-11T12:08:47.030Z,1.03
2023-03-11T12:11:25.268Z,1.00
2023-03-11T12:14:04.429Z,1.27
2023-03-11T12:16:50.463Z,1.10
2023-03-11T12:19:29.904Z,1.20
2023-03-11T12:22:40.150Z,0.93
2023-03-11T12:25:26.260Z,1.00
2023-03-11T12:28:04.849Z,2.73
2023-03-11T12:30:46.544Z,1.10
2023-03-11T12:33:21.208Z,0.83
2023-03-11T12:35:56.091Z,0.97
2023-03-11T12:38:33.580Z,1.40
2023-03-11T12:41:08.839Z,1.20
2023-03-11T12:44:26.241Z,1.10
2023-03-11T12:47:35.575Z,1.50
2023-03-11T12:50:39.606Z,1.53
2023-03-11T12:53:19.748Z,1.20
2023-03-11T12:56:08.016Z,0.80
2023-03-11T12:59:02.529Z,0.80
2023-03-11T13:02:01.924Z,1.60
2023-03-11T13:04:55.421Z,0.80
2023-03-11T13:07:43.409Z,1.27
2023-03-11T13:10:38.006Z,1.10
2023-03-11T13:13:40.429Z,1.53
2023-03-11T13:16:40.283Z,1.07
2023-03-11T13:19:43.929Z,1.03
2023-03-11T13:22:45.034Z,0.97
2023-03-11T13:25:43.265Z,0.90
2023-03-11T13:28:37.106Z,1.27
2023-03-11T13:31:19.880Z,1.20
2023-03-11T13:33:56.095Z,1.30
2023-03-11T13:36:56.624Z,1.40
2023-03-11T13:40:03.383Z,1.10
2023-03-11T13:42:43.904Z,1.27
2023-03-11T13:45:30.219Z,1.67
2023-03-11T13:48:04.318Z,1.70
2023-03-11T13:50:44.449Z,1.40
2023-03-11T13:53:23.915Z,1.20
2023-03-11T13:55:57.170Z,1.30
2023-03-11T13:58:31.676Z,1.33
2023-03-11T14:01:06.774Z,1.27
2023-03-11T14:03:45.095Z,1.23
2023-03-11T14:06:19.744Z,1.40
2023-03-11T14:08:56.524Z,1.30
2023-03-11T14:11:29.899Z,1.73
2023-03-11T14:14:03.805Z,2.00
2023-03-11T14:16:44.213Z,1.77
2023-03-11T14:19:18.201Z,1.50
2023-03-11T14:21:50.647Z,1.27
2023-03-11T14:24:25.457Z,1.37
2023-03-11T14:26:58.141Z,1.50
2023-03-11T14:29:35.531Z,1.60
2023-03-11T14:32:29.848Z,1.80
2023-03-11T14:35:01.078Z,2.03
2023-03-11T14:37:35.907Z,1.33
2023-03-11T14:40:07.919Z,1.70
2023-03-11T14:42:41.335Z,2.23
2023-03-11T14:45:21.135Z,1.70
2023-03-11T14:47:57.744Z,2.00
2023-03-11T14:50:31.838Z,1.33
2023-03-11T14:53:05.899Z,1.73
2023-03-11T14:55:40.477Z,2.10
2023-03-11T14:58:29.240Z,1.30
2023-03-11T15:01:28.346Z,1.80
2023-03-11T15:04:10.576Z,2.17
2023-03-11T15:06:45.179Z,1.80
2023-03-11T15:09:20.944Z,1.90
2023-03-11T15:11:58.250Z,1.93
2023-03-11T15:14:31.693Z,2.77
2023-03-11T15:17:33.625Z,1.70
2023-03-11T15:20:07.514Z,2.83
2023-03-11T15:22:41.656Z,3.30
2023-03-11T15:25:22.063Z,2.00
2023-03-11T15:27:52.972Z,2.00
2023-03-11T15:30:28.754Z,2.00
2023-03-11T15:33:02.477Z,1.70
2023-03-11T15:35:35.119Z,1.90
2023-03-11T15:38:25.853Z,1.40
2023-03-11T15:41:02.374Z,1.77
2023-03-11T15:43:34.722Z,4.17
2023-03-11T15:46:12.101Z,2.43
2023-03-11T15:48:45.675Z,3.13
2023-03-11T15:51:22.116Z,2.47
2023-03-11T15:53:52.881Z,3.80
2023-03-11T15:56:27.502Z,2.43
2023-03-11T15:59:01.822Z,1.67
2023-03-11T16:01:33.106Z,2.03
2023-03-11T16:04:06.535Z,1.47
2023-03-11T16:06:37.294Z,3.00
2023-03-11T16:09:08.044Z,2.00
2023-03-11T16:11:39.633Z,4.20
2023-03-11T16:14:17.247Z,2.57
2023-03-11T16:16:48.466Z,2.80
2023-03-11T16:19:21.927Z,2.97
2023-03-11T16:21:55.605Z,1.90
2023-03-11T16:24:28.261Z,2.17
2023-03-11T16:26:59.804Z,1.87
2023-03-11T16:29:31.046Z,2.60
2023-03-11T16:32:01.773Z,2.53
2023-03-11T16:34:35.121Z,2.67
2023-03-11T16:37:06.171Z,2.20
2023-03-11T16:39:38.731Z,2.33
2023-03-11T16:42:09.918Z,1.83
2023-03-11T16:44:40.891Z,2.43
2023-03-11T16:47:11.750Z,2.10
2023-03-11T16:49:45.995Z,2.37
2023-03-11T16:52:20.190Z,4.10
2023-03-11T16:54:51.559Z,5.23
2023-03-11T16:57:22.291Z,5.77
2023-03-11T16:59:53.004Z,4.17
2023-03-11T17:02:24.641Z,2.70
2023-03-11T17:05:00.502Z,4.10
2023-03-11T17:07:31.451Z,4.07
2023-03-11T17:10:02.674Z,3.10
2023-03-11T17:12:33.433Z,3.57
2023-03-11T17:15:05.120Z,4.57
2023-03-11T17:17:35.867Z,8.30
2023-03-11T17:20:11.125Z,7.77
2023-03-11T17:22:42.232Z,4.40
2023-03-11T17:25:13.405Z,4.90
2023-03-11T17:27:44.149Z,5.17
2023-03-11T17:30:27.168Z,6.17
2023-03-11T17:33:05.214Z,7.40
2023-03-11T17:35:38.989Z,9.13
2023-03-11T17:38:09.775Z,7.47
2023-03-11T17:40:57.734Z,9.60
2023-03-11T17:43:32.870Z,7.73
2023-03-11T17:46:04.075Z,12.60
2023-03-11T17:48:34.917Z,11.53
2023-03-11T17:51:15.702Z,10.77
2023-03-11T17:53:50.086Z,10.40
2023-03-11T17:56:25.793Z,9.20
2023-03-11T17:58:57.290Z,11.70
2023-03-11T18:01:34.421Z,10.57
2023-03-11T18:04:05.521Z,9.70
2023-03-11T18:06:38.870Z,9.07
2023-03-11T18:09:09.607Z,10.30
2023-03-11T18:11:40.450Z,10.37
2023-03-11T18:14:12.978Z,12.63
2023-03-11T18:16:43.838Z,12.63
2023-03-11T18:19:14.603Z,11.93
2023-03-11T18:21:48.056Z,10.73
2023-03-11T18:24:18.846Z,10.73
2023-03-11T18:26:49.805Z,9.43
2023-03-11T18:29:20.607Z,9.17
2023-03-11T18:31:51.388Z,8.87
2023-03-11T18:34:23.213Z,8.53
2023-03-11T18:36:59.954Z,8.00
2023-03-11T18:39:30.658Z,6.77
2023-03-11T18:42:02.947Z,6.53
2023-03-11T18:44:36.505Z,7.07
2023-03-11T18:47:07.743Z,7.50
2023-03-11T18:49:39.376Z,7.07
2023-03-11T18:52:14.781Z,7.20
2023-03-11T18:54:45.596Z,6.83
2023-03-11T18:57:16.345Z,6.60
2023-03-11T18:59:47.386Z,6.73
2023-03-11T19:02:18.376Z,7.57
2023-03-11T19:04:49.250Z,6.45
2023-03-11T19:07:22.674Z,7.13
2023-03-11T19:09:53.891Z,7.20
2023-03-11T19:12:29.180Z,7.72
2023-03-11T19:15:00.001Z,8.18
2023-03-11T19:17:30.927Z,9.18
2023-03-11T19:20:01.855Z,9.10
2023-03-11T19:22:35.159Z,10.60
2023-03-11T19:25:07.098Z,10.90
2023-03-11T19:27:39.066Z,11.38
2023-03-11T19:30:11.643Z,11.38
2023-03-11T19:32:45.587Z,16.05
2023-03-11T19:35:19.162Z,13.05
2023-03-11T19:37:57.112Z,14.95
2023-03-11T19:40:30.195Z,17.85
2023-03-11T19:43:01.001Z,18.52
2023-03-11T19:45:32.495Z,17.30
2023-03-11T19:48:05.754Z,15.90
2023-03-11T19:50:41.869Z,16.67
2023-03-11T19:53:17.912Z,15.68
2023-03-11T19:55:52.889Z,15.30
2023-03-11T19:58:24.905Z,15.77
2023-03-11T20:00:56.050Z,15.10
2023-03-11T20:03:27.438Z,14.25
2023-03-11T20:06:05.764Z,14.73
2023-03-11T20:08:39.491Z,14.00
2023-03-11T20:11:10.312Z,13.20
2023-03-11T20:13:42.674Z,12.57
2023-03-11T20:16:18.625Z,12.10
2023-03-11T20:18:52.115Z,12.05
2023-03-11T20:21:23.058Z,12.75
2023-03-11T20:23:56.900Z,12.98
2023-03-11T20:26:28.169Z,12.82
2023-03-11T20:28:59.700Z,11.95
2023-03-11T20:31:31.498Z,17.42
2023-03-11T20:34:02.527Z,15.50
2023-03-11T20:36:35.487Z,22.02
2023-03-11T20:39:12.375Z,23.70
2023-03-11T20:41:44.056Z,22.85
2023-03-11T20:44:16.444Z,21.85
2023-03-11T20:46:47.435Z,15.95
2023-03-11T20:49:18.393Z,12.75
2023-03-11T20:51:49.940Z,10.90
2023-03-11T20:54:23.421Z,11.35
2023-03-11T20:56:54.345Z,10.20
2023-03-11T20:59:25.104Z,9.60
2023-03-11T21:01:58.908Z,9.93
2023-03-11T21:04:29.926Z,9.38
2023-03-11T21:07:00.723Z,9.40
2023-03-11T21:09:34.097Z,8.60
2023-03-11T21:12:04.980Z,7.72
2023-03-11T21:14:36.637Z,7.55
2023-03-11T21:17:07.646Z,7.95
2023-03-11T21:19:38.495Z,7.10
2023-03-11T21:22:09.425Z,6.80
2023-03-11T21:24:42.959Z,6.82
2023-03-11T21:27:13.836Z,6.78
2023-03-11T21:29:44.670Z,6.68
2023-03-11T21:32:15.684Z,6.57
2023-03-11T21:34:46.624Z,5.93
2023-03-11T21:37:17.422Z,5.93
2023-03-11T21:39:51.133Z,7.20
2023-03-11T21:42:22.595Z,6.72
2023-03-11T21:44:54.389Z,6.75
2023-03-11T21:47:25.267Z,6.22
2023-03-11T21:49:56.205Z,7.65
2023-03-11T21:52:27.004Z,8.32
2023-03-11T21:55:00.740Z,8.57
2023-03-11T21:57:31.659Z,9.45
2023-03-11T22:00:02.604Z,9.88
2023-03-11T22:02:33.623Z,9.90
2023-03-11T22:05:04.719Z,8.45
2023-03-11T22:07:35.517Z,8.48
2023-03-11T22:10:10.208Z,8.40
2023-03-11T22:12:41.131Z,8.52
2023-03-11T22:15:12.909Z,8.27
2023-03-11T22:17:44.006Z,8.88
2023-03-11T22:20:15.561Z,9.75
2023-03-11T22:22:46.277Z,8.10
2023-03-11T22:25:19.741Z,8.07
2023-03-11T22:27:50.635Z,7.68
2023-03-11T22:30:21.505Z,7.63
2023-03-11T22:32:52.824Z,7.53
2023-03-11T22:35:23.916Z,7.70
2023-03-11T22:37:55.137Z,8.40
2023-03-11T22:40:28.979Z,6.90
2023-03-11T22:42:59.851Z,6.35
2023-03-11T22:45:30.569Z,7.55
2023-03-11T22:48:01.425Z,7.05
2023-03-11T22:50:33.247Z,6.95
2023-03-11T22:53:03.966Z,6.40
2023-03-11T22:55:41.708Z,6.90
2023-03-11T22:58:14.880Z,6.72
2023-03-11T23:00:45.867Z,6.30
2023-03-11T23:03:16.821Z,5.40
2023-03-11T23:05:47.877Z,7.00
2023-03-11T23:08:19.243Z,6.38
2023-03-11T23:10:54.851Z,7.30
2023-03-11T23:13:26.946Z,6.50
2023-03-11T23:15:57.772Z,7.43
2023-03-11T23:18:28.764Z,5.75
2023-03-11T23:20:59.620Z,5.40
2023-03-11T23:23:30.898Z,5.78
2023-03-11T23:26:09.985Z,5.80
2023-03-11T23:28:42.133Z,5.72
2023-03-11T23:31:15.027Z,6.25
2023-03-11T23:33:46.281Z,5.93
2023-03-11T23:36:22.671Z,6.55
2023-03-11T23:38:53.770Z,6.38
2023-03-11T23:41:27.752Z,6.10
2023-03-11T23:44:01.675Z,5.68
2023-03-11T23:46:32.489Z,6.07
2023-03-11T23:49:09.919Z,7.50
2023-03-11T23:51:40.646Z,6.00
2023-03-11T23:54:11.387Z,5.85
2023-03-11T23:56:46.279Z,5.32
2023-03-11T23:59:17.341Z,5.65
